University of Nebraska, Nebraska
Current Conditions -  °F | °C
As of 9:54 AM on Sunday 21 Dec 2014 (Local Time) from KLNK Reporting Station
Haze Haze  
Wind Chill: 31°   Ceiling: 600
Heat Index: 39°   Visibility: 5mi
Dew Point: 37°   Wind: 15mph
Humidity: 93%   Direction: 200°SSW
Pressure: 29.86"   Gusts: 23mph
Location:  40.8185°N, 96.71°W
Report Text: KLNK 211554Z 20013G20KT 5SM BR OVC006 04/03 A2986 RMK AO2 SLP119 T00390028
Loading
Personal Weather Stations






























Interactive Weather Map New forecast layout! Learn more

10-Day Weather Forecast

Advertisements
Track Severe Weather on mobile